Denver, CO

1:24 AM MDT on April 25, 2015 (GMT -0600)
Geography and Env. Sciences, CU Denver | | Change Station
CLOSE
Current Station
Personal Weather Station
Location: Denver, CO
Elevation: 5225 ft
Nearby Weather Stations

Elev 5225 ft 39.75 °N, 105.00 °W | Updated 4 minutes ago

Clear
Clear
48.8 °F
Feels Like 47 °F
N
5.0
Wind Variable Wind from SSE
Gusts 9.0 mph

Today
High -- | Low -- °F
--% Chance of Precip.
Yesterday
High -- | Low -- °F
Precip. -- in
6:08 AM 7:48 PM
Waxing Crescent, 43% visible
Pressure 29.63 in
Visibility 10.0 miles
Clouds Few 20000 ft
Windchill 47 °F
Dew Point 33 °F
Humidity 54%
Rainfall 0.00 in
Snow Depth Not available.
UV 0.0 out of 12
Pollen 10.60 out of 12
Air Quality Not available.
Flu Activity Sporadic
METAR KAPA 250653Z 23005KT 10SM FEW200 06/M03 A2973 RMK AO2 SLP034 T00611033 401720022

More Conditions Fewer Conditions

Pressure 29.63 in
Visibility 10.0 miles
Clouds Few 20000 ft
Windchill 47 °F
Dew Point 33 °F
Humidity 54%
Rainfall 0.00 in
Snow Depth Not available.
UV 0.0 out of 12
Pollen 10.60 out of 12
Air Quality Not available.
Flu Activity Sporadic
METAR KAPA 250653Z 23005KT 10SM FEW200 06/M03 A2973 RMK AO2 SLP034 T00611033 401720022

More Conditions Fewer Conditions

10-Day Weather Forecast

Almanac

Astronomy

Apr. 25, 2015 Rise Set
Actual Time
Civil Twilight
Nautical Twilight
Astronomical Twilight
Moon
Length of Visible Light
Length of Day
Tomorrow will be .
, % of the Moon is Illuminated

Today's Extremes

State Highs State Lows

Community

WunderPhotos

Upload Photos

1,816,624 photos uploaded!

WunderBlogs® & News

Nearby

Air Quality

  Air Quality AQ Index Pollutant
Not available.

Snow Depth

Station Depth Elevation

Earthquake Activity

City Distance Mag. Time & Date
Minimum magnitude displayed is 2.5.

Coastal Water Temperatures

Place Temperature

Stations

Nearby Weather Stations

Station Location Temp. Windchill Dew Point Humidity Wind Precip. Elev Updated Type